Oceanside, Washington
Current Conditions -  °F | °C
As of 9:55 PM on Wednesday 22 Oct 2014 (Local Time) from KAST Reporting Station
Light Rain Light Rain  
Wind Chill: 54°   Ceiling: 7500
Heat Index: 54°   Visibility: 10mi
Dew Point: 50°   Wind: 14mph
Humidity: 86%   Direction: 180°S
Pressure: 29.69"   Gusts: NA
Location:  46.3832°N, 124.042°W
Report Text: KAST 230455Z AUTO 18012KT 10SM -RA FEW060 BKN075 OVC090 12/10 A2969 RMK AO2 PK WND 18027/0410 SLP052 P0001 T01220100
Loading
Personal Weather Stations






























Interactive Weather Map
Tropical Storm Tracking
New forecast layout! Learn more

10-Day Weather Forecast

Advertisements
Track Severe Weather on mobile